Seamaster — ZMV7638 — position and weather

sailwx.info

Track history (hours):
 
Tides and Currents Weather Stations Pressure Air Temp Water Temp Dewpoint Dewpoint Depression Visibility Wind Speed Wind Dir Waves Ship Positions

Seamaster

Last reported at 2014-Dec-19 04:24 UTC. Time now 2014-Dec-19 13:37 UTC.
Position S 36°52' E 174°54'.

Length 44 m.

Type: Passenger vessel. MMSI: 512001027.

Date/timePositionNaut miles runAvg speedWind from/ knotsBaromVisibWave heightAir tempDewpointWater temp
2014-Dec-19 04:24S 36°52' E 174°54'1 0.4
2014-Dec-19 02:16S 36°51' E 174°54'1 0.8
2014-Dec-19 01:29S 36°52' E 174°54'0 0.2
2014-Dec-18 23:20S 36°51' E 174°54'1 0.8
2014-Dec-18 22:31S 36°51' E 174°54'6 4.4
2014-Dec-18 21:13S 36°49' E 175°00'6 7.2
2014-Dec-18 20:26S 36°51' E 174°54'1 1.6
2014-Dec-18 19:31S 36°52' E 174°54'1 0.4
2014-Dec-18 17:18S 36°51' E 174°54'1 0.1
2014-Dec-18 04:31S 36°52' E 174°54'1 0.6
2014-Dec-18 02:14S 36°51' E 174°54'1 1.3
2014-Dec-18 01:30S 36°52' E 174°54'2 1.1
2014-Dec-17 23:33S 36°50' E 174°56'2 2.2
2014-Dec-17 22:32S 36°52' E 174°54'1 0.3
2014-Dec-17 20:25S 36°51' E 174°54'0 0.6
2014-Dec-17 19:33S 36°52' E 174°54'1 0.3
2014-Dec-17 17:16S 36°51' E 174°53'2 1.5
2014-Dec-17 16:15S 36°53' E 174°54'3 0.3
2014-Dec-17 06:18S 36°50' E 174°55'1 1.1
2014-Dec-17 05:10S 36°50' E 174°57'3 4.2
2014-Dec-17 04:28S 36°52' E 174°54'1 0.6
2014-Dec-17 02:17S 36°51' E 174°54'1 1.1
2014-Dec-17 01:24S 36°52' E 174°54'1 0.4
2014-Dec-16 23:17S 36°51' E 174°54'1 1.6
2014-Dec-16 22:29S 36°52' E 174°54'1 0.4
2014-Dec-16 20:15S 36°51' E 174°54'1 1.3
2014-Dec-16 19:31S 36°52' E 174°54'1 0.4
2014-Dec-16 17:16S 36°51' E 174°53'0 0.0
2014-Dec-16 04:33S 36°52' E 174°54'0 0.0
2014-Dec-15 23:33S 36°52' E 174°54'1 0.8
2014-Dec-15 22:33S 36°51' E 174°54'1 0.4
2014-Dec-15 20:33S 36°51' E 174°54'1 0.5
2014-Dec-15 19:26S 36°52' E 174°54'1 0.2
2014-Dec-15 17:15S 36°51' E 174°54'1 0.0
2014-Dec-15 04:32S 36°52' E 174°54'6 3.9
2014-Dec-15 03:04S 36°49' E 175°00'6 7.8
2014-Dec-15 02:20S 36°51' E 174°54'1 0.7
2014-Dec-15 01:29S 36°51' E 174°54'1 0.4
2014-Dec-14 23:20S 36°52' E 174°54'0 0.3
2014-Dec-14 22:23S 36°52' E 174°54'0 0.1
2014-Dec-14 20:10S 36°52' E 174°54'0 0.4
2014-Dec-14 19:23S 36°52' E 174°54'0 0.1
2014-Dec-14 17:15S 36°51' E 174°54'1 0.1
2014-Dec-14 05:04S 36°53' E 174°54'2 3.4
2014-Dec-14 04:33S 36°51' E 174°53'6 4.6
2014-Dec-14 03:18S 36°49' E 175°00'5 5.6
2014-Dec-14 02:28S 36°51' E 174°55'1 1.6
2014-Dec-14 01:33S 36°52' E 174°54'6 4.4
2014-Dec-14 00:13S 36°49' E 175°00'5 6.7
2014-Dec-13 23:26S 36°51' E 174°54'1 1.6
2014-Dec-13 22:30S 36°52' E 174°54'0 0.0
2014-Dec-13 04:24S 36°52' E 174°54'2 1.2
2014-Dec-13 02:29S 36°50' E 174°56'2 2.1
2014-Dec-13 01:24S 36°52' E 174°54'1 0.4
2014-Dec-12 23:16S 36°51' E 174°54'1 1.0
2014-Dec-12 22:25S 36°52' E 174°54'1 0.6
2014-Dec-12 20:29S 36°51' E 174°54'0 0.1
2014-Dec-12 19:33S 36°51' E 174°53'1 0.0
2014-Dec-12 04:33S 36°51' E 174°54'8 8.1
2014-Dec-12 03:33S 36°44' E 174°50'9 9.3
2014-Dec-12 02:33S 36°35' E 174°51'8 4.0
2014-Dec-12 00:27S 36°26' E 174°49'0 0.4
2014-Dec-11 23:20S 36°27' E 174°50'6 7.2
2014-Dec-11 22:33S 36°32' E 174°51'10 9.5
2014-Dec-11 21:33S 36°42' E 174°50'9 8.1
2014-Dec-11 20:26S 36°51' E 174°53'2 1.8
2014-Dec-11 19:28S 36°52' E 174°54'1 0.6
2014-Dec-11 17:19S 36°51' E 174°54'2 1.6
2014-Dec-11 16:09S 36°53' E 174°54'4 0.3
2014-Dec-11 02:30S 36°50' E 174°57'3 2.7
2014-Dec-11 01:28S 36°51' E 174°54'0 0.1
2014-Dec-10 23:28S 36°51' E 174°54'1 1.3
2014-Dec-10 22:28S 36°52' E 174°54'2 1.0
2014-Dec-10 20:22S 36°50' E 174°53'3 0.2
2014-Dec-10 05:09S 36°53' E 174°54'1 1.3
2014-Dec-10 04:32S 36°52' E 174°54'3 1.5
2014-Dec-10 02:32S 36°50' E 174°57'4 0.7
2014-Dec-09 21:18S 36°47' E 174°54'4 2.3
2014-Dec-09 19:23S 36°52' E 174°54'1 0.4
2014-Dec-09 17:19S 36°51' E 174°54'2 1.7
2014-Dec-09 16:13S 36°53' E 174°54'1 0.1
2014-Dec-09 04:32S 36°51' E 174°54'  
Track history (hours):
 
Tides and Currents Weather Stations Pressure Air Temp Water Temp Dewpoint Dewpoint Depression Visibility Wind Speed Wind Dir Waves Ship Positions

Seamaster

Last reported at 2014-Dec-19 04:24 UTC. Time now 2014-Dec-19 13:37 UTC.
Position S 36°52' E 174°54'.

Length 44 m.

Type: Passenger vessel. MMSI: 512001027.

Date/timePositionNaut miles runAvg speedWind from/ knotsBaromVisibWave heightAir tempDewpointWater temp
2014-Dec-19 04:24S 36°52' E 174°54'1 0.4
2014-Dec-19 02:16S 36°51' E 174°54'1 0.8
2014-Dec-19 01:29S 36°52' E 174°54'0 0.2
2014-Dec-18 23:20S 36°51' E 174°54'1 0.8
2014-Dec-18 22:31S 36°51' E 174°54'6 4.4
2014-Dec-18 21:13S 36°49' E 175°00'6 7.2
2014-Dec-18 20:26S 36°51' E 174°54'1 1.6
2014-Dec-18 19:31S 36°52' E 174°54'1 0.4
2014-Dec-18 17:18S 36°51' E 174°54'1 0.1
2014-Dec-18 04:31S 36°52' E 174°54'1 0.6
2014-Dec-18 02:14S 36°51' E 174°54'1 1.3
2014-Dec-18 01:30S 36°52' E 174°54'2 1.1
2014-Dec-17 23:33S 36°50' E 174°56'2 2.2
2014-Dec-17 22:32S 36°52' E 174°54'1 0.3
2014-Dec-17 20:25S 36°51' E 174°54'0 0.6
2014-Dec-17 19:33S 36°52' E 174°54'1 0.3
2014-Dec-17 17:16S 36°51' E 174°53'2 1.5
2014-Dec-17 16:15S 36°53' E 174°54'3 0.3
2014-Dec-17 06:18S 36°50' E 174°55'1 1.1
2014-Dec-17 05:10S 36°50' E 174°57'3 4.2
2014-Dec-17 04:28S 36°52' E 174°54'1 0.6
2014-Dec-17 02:17S 36°51' E 174°54'1 1.1
2014-Dec-17 01:24S 36°52' E 174°54'1 0.4
2014-Dec-16 23:17S 36°51' E 174°54'1 1.6
2014-Dec-16 22:29S 36°52' E 174°54'1 0.4
2014-Dec-16 20:15S 36°51' E 174°54'1 1.3
2014-Dec-16 19:31S 36°52' E 174°54'1 0.4
2014-Dec-16 17:16S 36°51' E 174°53'0 0.0
2014-Dec-16 04:33S 36°52' E 174°54'0 0.0
2014-Dec-15 23:33S 36°52' E 174°54'1 0.8
2014-Dec-15 22:33S 36°51' E 174°54'1 0.4
2014-Dec-15 20:33S 36°51' E 174°54'1 0.5
2014-Dec-15 19:26S 36°52' E 174°54'1 0.2
2014-Dec-15 17:15S 36°51' E 174°54'1 0.0
2014-Dec-15 04:32S 36°52' E 174°54'6 3.9
2014-Dec-15 03:04S 36°49' E 175°00'6 7.8
2014-Dec-15 02:20S 36°51' E 174°54'1 0.7
2014-Dec-15 01:29S 36°51' E 174°54'1 0.4
2014-Dec-14 23:20S 36°52' E 174°54'0 0.3
2014-Dec-14 22:23S 36°52' E 174°54'0 0.1
2014-Dec-14 20:10S 36°52' E 174°54'0 0.4
2014-Dec-14 19:23S 36°52' E 174°54'0 0.1
2014-Dec-14 17:15S 36°51' E 174°54'1 0.1
2014-Dec-14 05:04S 36°53' E 174°54'2 3.4
2014-Dec-14 04:33S 36°51' E 174°53'6 4.6
2014-Dec-14 03:18S 36°49' E 175°00'5 5.6
2014-Dec-14 02:28S 36°51' E 174°55'1 1.6
2014-Dec-14 01:33S 36°52' E 174°54'6 4.4
2014-Dec-14 00:13S 36°49' E 175°00'5 6.7
2014-Dec-13 23:26S 36°51' E 174°54'1 1.6
2014-Dec-13 22:30S 36°52' E 174°54'0 0.0
2014-Dec-13 04:24S 36°52' E 174°54'2 1.2
2014-Dec-13 02:29S 36°50' E 174°56'2 2.1
2014-Dec-13 01:24S 36°52' E 174°54'1 0.4
2014-Dec-12 23:16S 36°51' E 174°54'1 1.0
2014-Dec-12 22:25S 36°52' E 174°54'1 0.6
2014-Dec-12 20:29S 36°51' E 174°54'0 0.1
2014-Dec-12 19:33S 36°51' E 174°53'1 0.0
2014-Dec-12 04:33S 36°51' E 174°54'8 8.1
2014-Dec-12 03:33S 36°44' E 174°50'9 9.3
2014-Dec-12 02:33S 36°35' E 174°51'8 4.0
2014-Dec-12 00:27S 36°26' E 174°49'0 0.4
2014-Dec-11 23:20S 36°27' E 174°50'6 7.2
2014-Dec-11 22:33S 36°32' E 174°51'10 9.5
2014-Dec-11 21:33S 36°42' E 174°50'9 8.1
2014-Dec-11 20:26S 36°51' E 174°53'2 1.8
2014-Dec-11 19:28S 36°52' E 174°54'1 0.6
2014-Dec-11 17:19S 36°51' E 174°54'2 1.6
2014-Dec-11 16:09S 36°53' E 174°54'4 0.3
2014-Dec-11 02:30S 36°50' E 174°57'3 2.7
2014-Dec-11 01:28S 36°51' E 174°54'0 0.1
2014-Dec-10 23:28S 36°51' E 174°54'1 1.3
2014-Dec-10 22:28S 36°52' E 174°54'2 1.0
2014-Dec-10 20:22S 36°50' E 174°53'3 0.2
2014-Dec-10 05:09S 36°53' E 174°54'1 1.3
2014-Dec-10 04:32S 36°52' E 174°54'3 1.5
2014-Dec-10 02:32S 36°50' E 174°57'4 0.7
2014-Dec-09 21:18S 36°47' E 174°54'4 2.3
2014-Dec-09 19:23S 36°52' E 174°54'1 0.4
2014-Dec-09 17:19S 36°51' E 174°54'2 1.7
2014-Dec-09 16:13S 36°53' E 174°54'1 0.1
2014-Dec-09 04:32S 36°51' E 174°54'  

Dump ship's entire track history